sensor_id;sensor_type;location;lat;lon;timestamp;P1;durP1;ratioP1;P2;durP2;ratioP2
15474;SDS011;7839;50.462;9.678;2024-02-14T00:05:12;1.47;;;0.90;;
15474;SDS011;7839;50.462;9.678;2024-02-14T00:11:52;1.23;;;0.90;;
15474;SDS011;7839;50.462;9.678;2024-02-14T00:18:32;1.03;;;0.80;;
15474;SDS011;7839;50.462;9.678;2024-02-14T00:25:13;1.17;;;1.07;;
15474;SDS011;7839;50.462;9.678;2024-02-14T00:31:53;1.03;;;0.93;;
15474;SDS011;7839;50.462;9.678;2024-02-14T00:38:33;1.10;;;0.93;;
15474;SDS011;7839;50.462;9.678;2024-02-14T00:45:14;0.67;;;0.67;;
15474;SDS011;7839;50.462;9.678;2024-02-14T00:51:55;1.60;;;0.83;;
15474;SDS011;7839;50.462;9.678;2024-02-14T00:58:35;1.47;;;1.00;;
15474;SDS011;7839;50.462;9.678;2024-02-14T01:05:15;1.10;;;1.00;;
15474;SDS011;7839;50.462;9.678;2024-02-14T01:11:56;1.03;;;0.90;;
15474;SDS011;7839;50.462;9.678;2024-02-14T01:18:36;0.77;;;0.77;;
15474;SDS011;7839;50.462;9.678;2024-02-14T01:25:16;1.53;;;0.63;;
15474;SDS011;7839;50.462;9.678;2024-02-14T01:31:56;0.60;;;0.60;;
15474;SDS011;7839;50.462;9.678;2024-02-14T01:38:37;0.60;;;0.60;;
15474;SDS011;7839;50.462;9.678;2024-02-14T01:45:17;1.13;;;0.70;;
15474;SDS011;7839;50.462;9.678;2024-02-14T01:52:00;0.93;;;0.63;;
15474;SDS011;7839;50.462;9.678;2024-02-14T01:58:41;1.70;;;0.93;;
15474;SDS011;7839;50.462;9.678;2024-02-14T02:05:22;1.17;;;0.73;;
15474;SDS011;7839;50.462;9.678;2024-02-14T02:12:03;0.77;;;0.60;;
15474;SDS011;7839;50.462;9.678;2024-02-14T02:18:47;1.13;;;0.90;;
15474;SDS011;7839;50.462;9.678;2024-02-14T02:25:28;0.60;;;0.60;;
15474;SDS011;7839;50.462;9.678;2024-02-14T02:32:09;1.00;;;0.90;;
15474;SDS011;7839;50.462;9.678;2024-02-14T02:38:50;0.80;;;0.80;;
15474;SDS011;7839;50.462;9.678;2024-02-14T02:45:30;0.70;;;0.60;;
15474;SDS011;7839;50.462;9.678;2024-02-14T02:52:10;1.27;;;0.90;;
15474;SDS011;7839;50.462;9.678;2024-02-14T02:58:50;1.00;;;0.73;;
15474;SDS011;7839;50.462;9.678;2024-02-14T03:05:31;1.20;;;1.10;;
15474;SDS011;7839;50.462;9.678;2024-02-14T03:12:13;1.47;;;0.93;;
15474;SDS011;7839;50.462;9.678;2024-02-14T03:18:56;1.23;;;1.10;;
15474;SDS011;7839;50.462;9.678;2024-02-14T03:25:36;0.70;;;0.70;;
15474;SDS011;7839;50.462;9.678;2024-02-14T03:32:16;1.40;;;0.80;;
15474;SDS011;7839;50.462;9.678;2024-02-14T03:38:57;1.65;;;1.00;;
15474;SDS011;7839;50.462;9.678;2024-02-14T03:45:37;0.80;;;0.80;;
15474;SDS011;7839;50.462;9.678;2024-02-14T03:52:17;0.70;;;0.70;;
15474;SDS011;7839;50.462;9.678;2024-02-14T03:59:00;1.07;;;0.97;;
15474;SDS011;7839;50.462;9.678;2024-02-14T04:05:55;1.00;;;0.90;;
15474;SDS011;7839;50.462;9.678;2024-02-14T04:12:35;1.77;;;0.73;;
15474;SDS011;7839;50.462;9.678;2024-02-14T04:19:16;1.30;;;0.77;;
15474;SDS011;7839;50.462;9.678;2024-02-14T04:25:57;3.27;;;1.00;;
15474;SDS011;7839;50.462;9.678;2024-02-14T04:32:37;1.60;;;0.83;;
15474;SDS011;7839;50.462;9.678;2024-02-14T04:39:17;0.80;;;0.77;;
15474;SDS011;7839;50.462;9.678;2024-02-14T04:45:58;1.27;;;0.90;;
15474;SDS011;7839;50.462;9.678;2024-02-14T04:52:38;1.03;;;0.93;;
15474;SDS011;7839;50.462;9.678;2024-02-14T04:59:18;1.73;;;0.80;;
15474;SDS011;7839;50.462;9.678;2024-02-14T05:05:59;1.90;;;0.80;;
15474;SDS011;7839;50.462;9.678;2024-02-14T05:12:42;1.33;;;0.83;;
15474;SDS011;7839;50.462;9.678;2024-02-14T05:19:22;0.70;;;0.70;;
15474;SDS011;7839;50.462;9.678;2024-02-14T05:26:03;1.57;;;0.73;;
15474;SDS011;7839;50.462;9.678;2024-02-14T05:32:43;1.93;;;0.93;;
15474;SDS011;7839;50.462;9.678;2024-02-14T05:39:23;1.93;;;0.87;;
15474;SDS011;7839;50.462;9.678;2024-02-14T05:46:03;1.30;;;1.10;;
15474;SDS011;7839;50.462;9.678;2024-02-14T05:52:44;0.87;;;0.80;;
15474;SDS011;7839;50.462;9.678;2024-02-14T05:59:24;2.30;;;1.23;;
15474;SDS011;7839;50.462;9.678;2024-02-14T06:06:04;1.50;;;0.90;;
15474;SDS011;7839;50.462;9.678;2024-02-14T06:12:44;2.90;;;1.00;;
15474;SDS011;7839;50.462;9.678;2024-02-14T06:19:26;1.83;;;1.00;;
15474;SDS011;7839;50.462;9.678;2024-02-14T06:26:06;2.17;;;1.10;;
15474;SDS011;7839;50.462;9.678;2024-02-14T06:32:47;3.73;;;1.23;;
15474;SDS011;7839;50.462;9.678;2024-02-14T06:39:27;1.10;;;1.00;;
15474;SDS011;7839;50.462;9.678;2024-02-14T06:46:07;1.90;;;1.17;;
15474;SDS011;7839;50.462;9.678;2024-02-14T06:52:47;0.90;;;0.90;;
15474;SDS011;7839;50.462;9.678;2024-02-14T06:59:27;1.33;;;1.03;;
15474;SDS011;7839;50.462;9.678;2024-02-14T07:06:08;2.40;;;1.33;;
15474;SDS011;7839;50.462;9.678;2024-02-14T07:12:48;2.30;;;1.10;;
15474;SDS011;7839;50.462;9.678;2024-02-14T07:19:28;2.60;;;1.13;;
15474;SDS011;7839;50.462;9.678;2024-02-14T07:26:08;1.07;;;0.73;;
15474;SDS011;7839;50.462;9.678;2024-02-14T07:32:48;1.50;;;1.20;;
15474;SDS011;7839;50.462;9.678;2024-02-14T07:39:28;1.43;;;1.10;;
15474;SDS011;7839;50.462;9.678;2024-02-14T07:46:09;4.40;;;1.27;;
15474;SDS011;7839;50.462;9.678;2024-02-14T07:52:49;2.30;;;1.10;;
15474;SDS011;7839;50.462;9.678;2024-02-14T07:59:30;2.00;;;1.13;;
15474;SDS011;7839;50.462;9.678;2024-02-14T08:06:10;2.47;;;1.47;;
15474;SDS011;7839;50.462;9.678;2024-02-14T08:12:50;3.07;;;1.67;;
15474;SDS011;7839;50.462;9.678;2024-02-14T08:19:30;1.63;;;1.47;;
15474;SDS011;7839;50.462;9.678;2024-02-14T08:26:10;2.03;;;1.17;;
15474;SDS011;7839;50.462;9.678;2024-02-14T08:32:51;1.77;;;1.40;;
15474;SDS011;7839;50.462;9.678;2024-02-14T08:39:31;1.50;;;1.23;;
15474;SDS011;7839;50.462;9.678;2024-02-14T08:46:11;2.60;;;1.43;;
15474;SDS011;7839;50.462;9.678;2024-02-14T08:52:51;1.27;;;1.17;;
15474;SDS011;7839;50.462;9.678;2024-02-14T08:59:31;2.20;;;1.50;;
15474;SDS011;7839;50.462;9.678;2024-02-14T09:06:12;1.57;;;1.40;;
15474;SDS011;7839;50.462;9.678;2024-02-14T09:12:52;1.50;;;1.40;;
15474;SDS011;7839;50.462;9.678;2024-02-14T09:19:33;3.10;;;1.50;;
15474;SDS011;7839;50.462;9.678;2024-02-14T09:26:13;2.50;;;1.60;;
15474;SDS011;7839;50.462;9.678;2024-02-14T09:32:53;1.23;;;1.13;;
15474;SDS011;7839;50.462;9.678;2024-02-14T09:39:34;1.63;;;1.40;;
15474;SDS011;7839;50.462;9.678;2024-02-14T09:46:16;1.90;;;1.40;;
15474;SDS011;7839;50.462;9.678;2024-02-14T09:52:56;1.80;;;1.33;;
15474;SDS011;7839;50.462;9.678;2024-02-14T09:59:37;1.90;;;1.43;;
15474;SDS011;7839;50.462;9.678;2024-02-14T10:06:17;1.80;;;1.50;;
15474;SDS011;7839;50.462;9.678;2024-02-14T10:12:58;1.67;;;1.23;;
15474;SDS011;7839;50.462;9.678;2024-02-14T10:19:38;1.83;;;1.57;;
15474;SDS011;7839;50.462;9.678;2024-02-14T10:26:20;1.57;;;1.43;;
15474;SDS011;7839;50.462;9.678;2024-02-14T10:33:01;2.27;;;1.57;;
15474;SDS011;7839;50.462;9.678;2024-02-14T10:39:41;1.60;;;1.10;;
15474;SDS011;7839;50.462;9.678;2024-02-14T10:46:23;1.20;;;1.00;;
15474;SDS011;7839;50.462;9.678;2024-02-14T10:53:05;2.77;;;1.43;;
15474;SDS011;7839;50.462;9.678;2024-02-14T10:59:47;1.43;;;1.33;;
15474;SDS011;7839;50.462;9.678;2024-02-14T11:06:29;1.80;;;1.47;;
15474;SDS011;7839;50.462;9.678;2024-02-14T11:13:10;2.27;;;1.40;;
15474;SDS011;7839;50.462;9.678;2024-02-14T11:19:50;1.47;;;1.37;;
15474;SDS011;7839;50.462;9.678;2024-02-14T11:26:37;2.10;;;1.40;;
15474;SDS011;7839;50.462;9.678;2024-02-14T11:33:21;2.00;;;1.40;;
15474;SDS011;7839;50.462;9.678;2024-02-14T11:40:01;1.33;;;1.17;;
15474;SDS011;7839;50.462;9.678;2024-02-14T11:46:42;1.50;;;1.40;;
15474;SDS011;7839;50.462;9.678;2024-02-14T11:53:22;2.47;;;1.73;;
15474;SDS011;7839;50.462;9.678;2024-02-14T12:00:03;2.53;;;1.57;;
15474;SDS011;7839;50.462;9.678;2024-02-14T12:06:44;1.30;;;1.20;;
15474;SDS011;7839;50.462;9.678;2024-02-14T12:13:25;1.00;;;1.00;;
15474;SDS011;7839;50.462;9.678;2024-02-14T12:20:07;2.40;;;1.40;;
15474;SDS011;7839;50.462;9.678;2024-02-14T12:26:49;2.47;;;1.33;;
15474;SDS011;7839;50.462;9.678;2024-02-14T12:33:32;1.83;;;1.20;;
15474;SDS011;7839;50.462;9.678;2024-02-14T12:40:12;1.50;;;1.17;;
15474;SDS011;7839;50.462;9.678;2024-02-14T12:46:52;1.60;;;1.37;;
15474;SDS011;7839;50.462;9.678;2024-02-14T12:53:32;1.30;;;1.20;;
15474;SDS011;7839;50.462;9.678;2024-02-14T13:00:13;1.07;;;1.07;;
15474;SDS011;7839;50.462;9.678;2024-02-14T13:06:53;1.33;;;1.23;;
15474;SDS011;7839;50.462;9.678;2024-02-14T13:13:34;1.13;;;1.03;;
15474;SDS011;7839;50.462;9.678;2024-02-14T13:20:15;1.37;;;1.20;;
15474;SDS011;7839;50.462;9.678;2024-02-14T13:26:55;1.30;;;1.20;;
15474;SDS011;7839;50.462;9.678;2024-02-14T13:33:37;1.40;;;1.20;;
15474;SDS011;7839;50.462;9.678;2024-02-14T13:40:17;1.83;;;1.10;;
15474;SDS011;7839;50.462;9.678;2024-02-14T13:46:58;2.73;;;1.30;;
15474;SDS011;7839;50.462;9.678;2024-02-14T13:53:38;1.23;;;1.13;;
15474;SDS011;7839;50.462;9.678;2024-02-14T14:00:19;1.52;;;1.20;;
15474;SDS011;7839;50.462;9.678;2024-02-14T14:06:59;1.53;;;1.00;;
15474;SDS011;7839;50.462;9.678;2024-02-14T14:13:42;1.10;;;1.00;;
15474;SDS011;7839;50.462;9.678;2024-02-14T14:20:23;3.13;;;1.20;;
15474;SDS011;7839;50.462;9.678;2024-02-14T14:27:03;0.97;;;0.93;;
15474;SDS011;7839;50.462;9.678;2024-02-14T14:33:43;3.43;;;1.30;;
15474;SDS011;7839;50.462;9.678;2024-02-14T14:40:23;1.30;;;1.20;;
15474;SDS011;7839;50.462;9.678;2024-02-14T14:47:04;1.87;;;1.50;;
15474;SDS011;7839;50.462;9.678;2024-02-14T14:53:45;1.43;;;1.23;;
15474;SDS011;7839;50.462;9.678;2024-02-14T15:00:25;1.90;;;1.20;;
15474;SDS011;7839;50.462;9.678;2024-02-14T15:07:06;2.43;;;1.43;;
15474;SDS011;7839;50.462;9.678;2024-02-14T15:13:46;1.40;;;1.30;;
15474;SDS011;7839;50.462;9.678;2024-02-14T15:20:26;1.60;;;1.37;;
15474;SDS011;7839;50.462;9.678;2024-02-14T15:27:07;1.37;;;1.27;;
15474;SDS011;7839;50.462;9.678;2024-02-14T15:33:47;2.00;;;1.40;;
15474;SDS011;7839;50.462;9.678;2024-02-14T15:40:27;1.50;;;1.30;;
15474;SDS011;7839;50.462;9.678;2024-02-14T15:47:07;1.40;;;1.20;;
15474;SDS011;7839;50.462;9.678;2024-02-14T15:53:47;1.13;;;1.03;;
15474;SDS011;7839;50.462;9.678;2024-02-14T16:00:28;1.53;;;1.30;;
15474;SDS011;7839;50.462;9.678;2024-02-14T16:07:11;1.50;;;1.40;;
15474;SDS011;7839;50.462;9.678;2024-02-14T16:13:51;1.63;;;1.53;;
15474;SDS011;7839;50.462;9.678;2024-02-14T16:20:31;2.50;;;1.70;;
15474;SDS011;7839;50.462;9.678;2024-02-14T16:27:12;1.43;;;1.20;;
15474;SDS011;7839;50.462;9.678;2024-02-14T16:33:52;2.90;;;1.40;;
15474;SDS011;7839;50.462;9.678;2024-02-14T16:40:32;1.50;;;1.40;;
15474;SDS011;7839;50.462;9.678;2024-02-14T16:47:14;1.60;;;1.50;;
15474;SDS011;7839;50.462;9.678;2024-02-14T16:53:55;1.70;;;1.57;;
15474;SDS011;7839;50.462;9.678;2024-02-14T17:00:35;2.13;;;1.50;;
15474;SDS011;7839;50.462;9.678;2024-02-14T17:07:15;2.20;;;2.00;;
15474;SDS011;7839;50.462;9.678;2024-02-14T17:13:55;2.30;;;2.00;;
15474;SDS011;7839;50.462;9.678;2024-02-14T17:20:35;1.90;;;1.67;;
15474;SDS011;7839;50.462;9.678;2024-02-14T17:27:16;1.97;;;1.77;;
15474;SDS011;7839;50.462;9.678;2024-02-14T17:33:56;2.13;;;1.90;;
15474;SDS011;7839;50.462;9.678;2024-02-14T17:40:37;1.77;;;1.60;;
15474;SDS011;7839;50.462;9.678;2024-02-14T17:47:18;1.70;;;1.60;;
15474;SDS011;7839;50.462;9.678;2024-02-14T17:53:58;1.77;;;1.67;;
15474;SDS011;7839;50.462;9.678;2024-02-14T18:00:38;1.50;;;1.40;;
15474;SDS011;7839;50.462;9.678;2024-02-14T18:07:18;2.17;;;1.80;;
15474;SDS011;7839;50.462;9.678;2024-02-14T18:13:59;2.00;;;1.50;;
15474;SDS011;7839;50.462;9.678;2024-02-14T18:20:39;2.23;;;1.80;;
15474;SDS011;7839;50.462;9.678;2024-02-14T18:27:19;1.50;;;1.40;;
15474;SDS011;7839;50.462;9.678;2024-02-14T18:34:02;1.63;;;1.53;;
15474;SDS011;7839;50.462;9.678;2024-02-14T18:40:42;1.53;;;1.43;;
15474;SDS011;7839;50.462;9.678;2024-02-14T18:47:22;1.87;;;1.70;;
15474;SDS011;7839;50.462;9.678;2024-02-14T18:54:03;1.40;;;1.30;;
15474;SDS011;7839;50.462;9.678;2024-02-14T19:00:43;1.70;;;1.50;;
15474;SDS011;7839;50.462;9.678;2024-02-14T19:07:24;1.27;;;1.17;;
15474;SDS011;7839;50.462;9.678;2024-02-14T19:14:05;2.20;;;1.20;;
15474;SDS011;7839;50.462;9.678;2024-02-14T19:20:46;1.20;;;1.00;;
15474;SDS011;7839;50.462;9.678;2024-02-14T19:27:27;1.70;;;1.10;;
15474;SDS011;7839;50.462;9.678;2024-02-14T19:34:07;1.63;;;1.20;;
15474;SDS011;7839;50.462;9.678;2024-02-14T19:40:47;0.97;;;0.97;;
15474;SDS011;7839;50.462;9.678;2024-02-14T19:47:27;0.93;;;0.93;;
15474;SDS011;7839;50.462;9.678;2024-02-14T19:54:08;0.83;;;0.83;;
15474;SDS011;7839;50.462;9.678;2024-02-14T20:00:50;0.77;;;0.77;;
15474;SDS011;7839;50.462;9.678;2024-02-14T20:07:31;0.90;;;0.90;;
15474;SDS011;7839;50.462;9.678;2024-02-14T20:14:11;0.90;;;0.90;;
15474;SDS011;7839;50.462;9.678;2024-02-14T20:20:52;0.73;;;0.73;;
15474;SDS011;7839;50.462;9.678;2024-02-14T20:27:32;0.83;;;0.80;;
15474;SDS011;7839;50.462;9.678;2024-02-14T20:34:12;0.70;;;0.70;;
15474;SDS011;7839;50.462;9.678;2024-02-14T20:40:53;0.50;;;0.50;;
15474;SDS011;7839;50.462;9.678;2024-02-14T20:47:33;0.67;;;0.67;;
15474;SDS011;7839;50.462;9.678;2024-02-14T20:54:13;0.80;;;0.80;;
15474;SDS011;7839;50.462;9.678;2024-02-14T21:00:54;0.70;;;0.70;;
15474;SDS011;7839;50.462;9.678;2024-02-14T21:07:34;0.60;;;0.60;;
15474;SDS011;7839;50.462;9.678;2024-02-14T21:14:14;1.00;;;0.90;;
15474;SDS011;7839;50.462;9.678;2024-02-14T21:20:54;0.70;;;0.70;;
15474;SDS011;7839;50.462;9.678;2024-02-14T21:27:34;0.80;;;0.80;;
15474;SDS011;7839;50.462;9.678;2024-02-14T21:34:15;1.00;;;1.00;;
15474;SDS011;7839;50.462;9.678;2024-02-14T21:40:57;0.90;;;0.90;;
15474;SDS011;7839;50.462;9.678;2024-02-14T21:47:38;0.77;;;0.77;;
15474;SDS011;7839;50.462;9.678;2024-02-14T21:54:18;0.93;;;0.93;;
15474;SDS011;7839;50.462;9.678;2024-02-14T22:00:58;1.00;;;1.00;;
15474;SDS011;7839;50.462;9.678;2024-02-14T22:07:39;1.47;;;1.37;;
15474;SDS011;7839;50.462;9.678;2024-02-14T22:14:19;1.20;;;1.10;;
15474;SDS011;7839;50.462;9.678;2024-02-14T22:21:00;0.90;;;0.90;;
15474;SDS011;7839;50.462;9.678;2024-02-14T22:27:41;0.87;;;0.87;;
15474;SDS011;7839;50.462;9.678;2024-02-14T22:34:21;0.97;;;0.97;;
15474;SDS011;7839;50.462;9.678;2024-02-14T22:41:02;1.00;;;1.00;;
15474;SDS011;7839;50.462;9.678;2024-02-14T22:47:42;0.77;;;0.77;;
15474;SDS011;7839;50.462;9.678;2024-02-14T22:54:22;0.97;;;0.93;;
15474;SDS011;7839;50.462;9.678;2024-02-14T23:01:02;1.47;;;0.80;;
15474;SDS011;7839;50.462;9.678;2024-02-14T23:07:42;0.93;;;0.90;;
15474;SDS011;7839;50.462;9.678;2024-02-14T23:14:23;1.33;;;0.90;;
15474;SDS011;7839;50.462;9.678;2024-02-14T23:21:04;1.00;;;0.90;;
15474;SDS011;7839;50.462;9.678;2024-02-14T23:27:44;0.97;;;0.83;;
15474;SDS011;7839;50.462;9.678;2024-02-14T23:34:25;0.83;;;0.83;;
15474;SDS011;7839;50.462;9.678;2024-02-14T23:41:06;1.10;;;1.00;;
15474;SDS011;7839;50.462;9.678;2024-02-14T23:47:47;1.23;;;0.93;;
15474;SDS011;7839;50.462;9.678;2024-02-14T23:54:27;0.90;;;0.90;;
